sensor_id;sensor_type;location;lat;lon;timestamp;P1;durP1;ratioP1;P2;durP2;ratioP2
4323;SDS011;2175;51.018;6.994;2023-09-07T00:00:36;9.60;;;7.33;;
4323;SDS011;2175;51.018;6.994;2023-09-07T00:03:02;10.63;;;7.57;;
4323;SDS011;2175;51.018;6.994;2023-09-07T00:05:29;16.17;;;7.90;;
4323;SDS011;2175;51.018;6.994;2023-09-07T00:07:55;11.03;;;7.50;;
4323;SDS011;2175;51.018;6.994;2023-09-07T00:10:21;10.17;;;7.27;;
4323;SDS011;2175;51.018;6.994;2023-09-07T00:12:47;9.07;;;7.80;;
4323;SDS011;2175;51.018;6.994;2023-09-07T00:15:13;13.50;;;7.20;;
4323;SDS011;2175;51.018;6.994;2023-09-07T00:17:39;13.40;;;7.17;;
4323;SDS011;2175;51.018;6.994;2023-09-07T00:20:05;10.30;;;7.70;;
4323;SDS011;2175;51.018;6.994;2023-09-07T00:22:35;10.87;;;8.37;;
4323;SDS011;2175;51.018;6.994;2023-09-07T00:25:01;16.23;;;8.70;;
4323;SDS011;2175;51.018;6.994;2023-09-07T00:27:29;14.03;;;7.60;;
4323;SDS011;2175;51.018;6.994;2023-09-07T00:29:55;11.73;;;7.80;;
4323;SDS011;2175;51.018;6.994;2023-09-07T00:32:21;11.27;;;7.57;;
4323;SDS011;2175;51.018;6.994;2023-09-07T00:34:47;9.80;;;7.80;;
4323;SDS011;2175;51.018;6.994;2023-09-07T00:37:13;11.70;;;7.10;;
4323;SDS011;2175;51.018;6.994;2023-09-07T00:39:38;14.20;;;7.20;;
4323;SDS011;2175;51.018;6.994;2023-09-07T00:47:09;10.60;;;7.90;;
4323;SDS011;2175;51.018;6.994;2023-09-07T00:49:34;10.23;;;7.37;;
4323;SDS011;2175;51.018;6.994;2023-09-07T00:52:01;9.00;;;7.27;;
4323;SDS011;2175;51.018;6.994;2023-09-07T00:54:28;8.37;;;6.47;;
4323;SDS011;2175;51.018;6.994;2023-09-07T00:56:55;10.77;;;7.50;;
4323;SDS011;2175;51.018;6.994;2023-09-07T00:59:21;8.90;;;7.10;;
4323;SDS011;2175;51.018;6.994;2023-09-07T01:01:47;9.70;;;7.27;;
4323;SDS011;2175;51.018;6.994;2023-09-07T01:04:14;10.77;;;7.67;;
4323;SDS011;2175;51.018;6.994;2023-09-07T01:06:43;11.77;;;7.40;;
4323;SDS011;2175;51.018;6.994;2023-09-07T01:09:10;13.77;;;8.10;;
4323;SDS011;2175;51.018;6.994;2023-09-07T01:11:38;11.47;;;8.40;;
4323;SDS011;2175;51.018;6.994;2023-09-07T01:14:04;11.93;;;7.50;;
4323;SDS011;2175;51.018;6.994;2023-09-07T01:16:30;10.80;;;7.13;;
4323;SDS011;2175;51.018;6.994;2023-09-07T01:18:58;8.87;;;7.53;;
4323;SDS011;2175;51.018;6.994;2023-09-07T01:21:24;8.90;;;7.13;;
4323;SDS011;2175;51.018;6.994;2023-09-07T01:23:51;17.20;;;7.23;;
4323;SDS011;2175;51.018;6.994;2023-09-07T01:26:17;12.63;;;8.07;;
4323;SDS011;2175;51.018;6.994;2023-09-07T01:28:43;10.73;;;7.30;;
4323;SDS011;2175;51.018;6.994;2023-09-07T01:31:09;14.43;;;7.70;;
4323;SDS011;2175;51.018;6.994;2023-09-07T01:33:35;10.13;;;7.40;;
4323;SDS011;2175;51.018;6.994;2023-09-07T01:36:02;9.87;;;7.70;;
4323;SDS011;2175;51.018;6.994;2023-09-07T01:38:28;10.23;;;7.87;;
4323;SDS011;2175;51.018;6.994;2023-09-07T01:40:54;12.80;;;8.07;;
4323;SDS011;2175;51.018;6.994;2023-09-07T01:43:20;11.80;;;8.47;;
4323;SDS011;2175;51.018;6.994;2023-09-07T01:45:46;11.53;;;8.33;;
4323;SDS011;2175;51.018;6.994;2023-09-07T01:48:13;11.63;;;8.60;;
4323;SDS011;2175;51.018;6.994;2023-09-07T01:50:39;14.63;;;8.03;;
4323;SDS011;2175;51.018;6.994;2023-09-07T01:53:05;11.23;;;7.77;;
4323;SDS011;2175;51.018;6.994;2023-09-07T01:55:31;10.60;;;8.80;;
4323;SDS011;2175;51.018;6.994;2023-09-07T01:57:58;9.87;;;7.70;;
4323;SDS011;2175;51.018;6.994;2023-09-07T02:00:23;10.30;;;7.77;;
4323;SDS011;2175;51.018;6.994;2023-09-07T02:02:49;12.00;;;8.33;;
4323;SDS011;2175;51.018;6.994;2023-09-07T02:05:15;10.73;;;8.43;;
4323;SDS011;2175;51.018;6.994;2023-09-07T02:07:42;10.73;;;7.63;;
4323;SDS011;2175;51.018;6.994;2023-09-07T02:10:08;9.53;;;7.47;;
4323;SDS011;2175;51.018;6.994;2023-09-07T02:12:34;8.73;;;7.50;;
4323;SDS011;2175;51.018;6.994;2023-09-07T02:15:01;8.50;;;7.50;;
4323;SDS011;2175;51.018;6.994;2023-09-07T02:17:27;12.47;;;7.83;;
4323;SDS011;2175;51.018;6.994;2023-09-07T02:19:53;11.80;;;7.93;;
4323;SDS011;2175;51.018;6.994;2023-09-07T02:22:19;11.97;;;7.63;;
4323;SDS011;2175;51.018;6.994;2023-09-07T02:24:45;9.37;;;7.23;;
4323;SDS011;2175;51.018;6.994;2023-09-07T02:27:11;13.00;;;8.07;;
4323;SDS011;2175;51.018;6.994;2023-09-07T02:29:37;10.37;;;8.60;;
4323;SDS011;2175;51.018;6.994;2023-09-07T02:32:03;12.43;;;7.80;;
4323;SDS011;2175;51.018;6.994;2023-09-07T02:34:30;9.60;;;8.00;;
4323;SDS011;2175;51.018;6.994;2023-09-07T02:36:56;9.10;;;7.47;;
4323;SDS011;2175;51.018;6.994;2023-09-07T02:39:22;9.60;;;7.60;;
4323;SDS011;2175;51.018;6.994;2023-09-07T02:41:51;12.27;;;7.70;;
4323;SDS011;2175;51.018;6.994;2023-09-07T02:44:17;10.60;;;8.70;;
4323;SDS011;2175;51.018;6.994;2023-09-07T02:46:43;12.47;;;8.40;;
4323;SDS011;2175;51.018;6.994;2023-09-07T02:49:09;11.30;;;7.33;;
4323;SDS011;2175;51.018;6.994;2023-09-07T02:51:35;9.93;;;8.03;;
4323;SDS011;2175;51.018;6.994;2023-09-07T02:54:02;13.80;;;8.97;;
4323;SDS011;2175;51.018;6.994;2023-09-07T02:56:28;11.03;;;8.60;;
4323;SDS011;2175;51.018;6.994;2023-09-07T02:58:54;11.20;;;9.30;;
4323;SDS011;2175;51.018;6.994;2023-09-07T03:01:21;16.80;;;8.80;;
4323;SDS011;2175;51.018;6.994;2023-09-07T03:03:47;9.40;;;8.07;;
4323;SDS011;2175;51.018;6.994;2023-09-07T03:06:14;12.80;;;8.33;;
4323;SDS011;2175;51.018;6.994;2023-09-07T03:08:41;13.43;;;9.00;;
4323;SDS011;2175;51.018;6.994;2023-09-07T03:11:08;13.80;;;8.77;;
4323;SDS011;2175;51.018;6.994;2023-09-07T03:13:34;10.53;;;7.70;;
4323;SDS011;2175;51.018;6.994;2023-09-07T03:16:00;10.00;;;7.90;;
4323;SDS011;2175;51.018;6.994;2023-09-07T03:18:27;12.07;;;8.83;;
4323;SDS011;2175;51.018;6.994;2023-09-07T03:20:53;12.00;;;8.27;;
4323;SDS011;2175;51.018;6.994;2023-09-07T03:23:20;11.00;;;9.30;;
4323;SDS011;2175;51.018;6.994;2023-09-07T03:25:47;11.07;;;8.50;;
4323;SDS011;2175;51.018;6.994;2023-09-07T03:28:13;10.00;;;8.50;;
4323;SDS011;2175;51.018;6.994;2023-09-07T03:30:39;9.73;;;7.77;;
4323;SDS011;2175;51.018;6.994;2023-09-07T03:33:05;9.77;;;8.33;;
4323;SDS011;2175;51.018;6.994;2023-09-07T03:35:31;14.83;;;8.00;;
4323;SDS011;2175;51.018;6.994;2023-09-07T03:37:57;10.40;;;7.80;;
4323;SDS011;2175;51.018;6.994;2023-09-07T03:40:23;11.60;;;7.60;;
4323;SDS011;2175;51.018;6.994;2023-09-07T03:42:50;9.43;;;7.70;;
4323;SDS011;2175;51.018;6.994;2023-09-07T03:45:16;11.77;;;8.50;;
4323;SDS011;2175;51.018;6.994;2023-09-07T03:47:42;13.27;;;8.30;;
4323;SDS011;2175;51.018;6.994;2023-09-07T03:50:09;12.97;;;8.20;;
4323;SDS011;2175;51.018;6.994;2023-09-07T03:52:35;12.83;;;7.70;;
4323;SDS011;2175;51.018;6.994;2023-09-07T03:55:01;14.13;;;8.27;;
4323;SDS011;2175;51.018;6.994;2023-09-07T03:57:28;12.53;;;7.90;;
4323;SDS011;2175;51.018;6.994;2023-09-07T03:59:54;9.87;;;8.10;;
4323;SDS011;2175;51.018;6.994;2023-09-07T04:02:20;13.57;;;8.13;;
4323;SDS011;2175;51.018;6.994;2023-09-07T04:04:50;10.90;;;7.70;;
4323;SDS011;2175;51.018;6.994;2023-09-07T04:07:16;11.57;;;7.50;;
4323;SDS011;2175;51.018;6.994;2023-09-07T04:09:42;11.10;;;7.40;;
4323;SDS011;2175;51.018;6.994;2023-09-07T04:12:09;9.90;;;7.27;;
4323;SDS011;2175;51.018;6.994;2023-09-07T04:14:34;14.67;;;8.50;;
4323;SDS011;2175;51.018;6.994;2023-09-07T04:17:01;10.87;;;7.93;;
4323;SDS011;2175;51.018;6.994;2023-09-07T04:19:27;11.00;;;7.80;;
4323;SDS011;2175;51.018;6.994;2023-09-07T04:21:53;12.40;;;8.10;;
4323;SDS011;2175;51.018;6.994;2023-09-07T04:24:19;12.60;;;9.00;;
4323;SDS011;2175;51.018;6.994;2023-09-07T04:26:45;10.10;;;6.87;;
4323;SDS011;2175;51.018;6.994;2023-09-07T04:29:11;11.10;;;8.60;;
4323;SDS011;2175;51.018;6.994;2023-09-07T04:31:38;10.50;;;7.20;;
4323;SDS011;2175;51.018;6.994;2023-09-07T04:34:04;9.20;;;7.73;;
4323;SDS011;2175;51.018;6.994;2023-09-07T04:36:30;10.63;;;7.07;;
4323;SDS011;2175;51.018;6.994;2023-09-07T04:38:56;11.07;;;8.30;;
4323;SDS011;2175;51.018;6.994;2023-09-07T04:41:22;11.47;;;8.80;;
4323;SDS011;2175;51.018;6.994;2023-09-07T04:43:48;15.50;;;7.87;;
4323;SDS011;2175;51.018;6.994;2023-09-07T04:46:14;12.70;;;8.10;;
4323;SDS011;2175;51.018;6.994;2023-09-07T04:48:41;11.17;;;8.97;;
4323;SDS011;2175;51.018;6.994;2023-09-07T04:51:07;14.77;;;8.80;;
4323;SDS011;2175;51.018;6.994;2023-09-07T04:53:34;10.10;;;8.30;;
4323;SDS011;2175;51.018;6.994;2023-09-07T04:56:01;13.57;;;7.77;;
4323;SDS011;2175;51.018;6.994;2023-09-07T04:58:27;10.33;;;8.60;;
4323;SDS011;2175;51.018;6.994;2023-09-07T05:00:53;15.73;;;8.90;;
4323;SDS011;2175;51.018;6.994;2023-09-07T05:03:19;13.63;;;9.00;;
4323;SDS011;2175;51.018;6.994;2023-09-07T05:05:50;16.33;;;8.97;;
4323;SDS011;2175;51.018;6.994;2023-09-07T05:08:16;10.77;;;9.17;;
4323;SDS011;2175;51.018;6.994;2023-09-07T05:10:42;13.10;;;9.23;;
4323;SDS011;2175;51.018;6.994;2023-09-07T05:13:08;11.67;;;8.70;;
4323;SDS011;2175;51.018;6.994;2023-09-07T05:15:34;13.13;;;9.17;;
4323;SDS011;2175;51.018;6.994;2023-09-07T05:18:00;10.07;;;8.10;;
4323;SDS011;2175;51.018;6.994;2023-09-07T05:20:26;13.10;;;8.17;;
4323;SDS011;2175;51.018;6.994;2023-09-07T05:22:52;10.63;;;7.83;;
4323;SDS011;2175;51.018;6.994;2023-09-07T05:25:18;11.33;;;8.00;;
4323;SDS011;2175;51.018;6.994;2023-09-07T05:27:45;13.20;;;9.30;;
4323;SDS011;2175;51.018;6.994;2023-09-07T05:30:11;15.37;;;9.00;;
4323;SDS011;2175;51.018;6.994;2023-09-07T05:32:37;13.07;;;8.33;;
4323;SDS011;2175;51.018;6.994;2023-09-07T05:35:04;11.70;;;9.07;;
4323;SDS011;2175;51.018;6.994;2023-09-07T05:37:30;13.60;;;9.00;;
4323;SDS011;2175;51.018;6.994;2023-09-07T05:39:56;11.73;;;8.83;;
4323;SDS011;2175;51.018;6.994;2023-09-07T05:42:22;14.90;;;8.40;;
4323;SDS011;2175;51.018;6.994;2023-09-07T05:44:50;10.77;;;8.60;;
4323;SDS011;2175;51.018;6.994;2023-09-07T05:47:16;11.33;;;8.33;;
4323;SDS011;2175;51.018;6.994;2023-09-07T05:49:42;13.13;;;9.70;;
4323;SDS011;2175;51.018;6.994;2023-09-07T05:52:08;11.73;;;8.77;;
4323;SDS011;2175;51.018;6.994;2023-09-07T05:54:34;12.80;;;9.80;;
4323;SDS011;2175;51.018;6.994;2023-09-07T05:57:00;15.60;;;9.70;;
4323;SDS011;2175;51.018;6.994;2023-09-07T05:59:26;14.10;;;9.37;;
4323;SDS011;2175;51.018;6.994;2023-09-07T06:01:52;15.33;;;9.53;;
4323;SDS011;2175;51.018;6.994;2023-09-07T06:04:18;15.40;;;8.30;;
4323;SDS011;2175;51.018;6.994;2023-09-07T06:06:44;15.87;;;9.20;;
4323;SDS011;2175;51.018;6.994;2023-09-07T06:09:10;14.20;;;9.73;;
4323;SDS011;2175;51.018;6.994;2023-09-07T06:11:37;12.57;;;9.50;;
4323;SDS011;2175;51.018;6.994;2023-09-07T06:14:03;11.93;;;9.27;;
4323;SDS011;2175;51.018;6.994;2023-09-07T06:16:29;19.30;;;9.23;;
4323;SDS011;2175;51.018;6.994;2023-09-07T06:18:55;14.20;;;9.20;;
4323;SDS011;2175;51.018;6.994;2023-09-07T06:21:21;15.10;;;8.90;;
4323;SDS011;2175;51.018;6.994;2023-09-07T06:23:46;14.53;;;9.10;;
4323;SDS011;2175;51.018;6.994;2023-09-07T06:26:12;13.60;;;9.20;;
4323;SDS011;2175;51.018;6.994;2023-09-07T06:28:39;13.87;;;9.27;;
4323;SDS011;2175;51.018;6.994;2023-09-07T06:31:05;17.57;;;9.50;;
4323;SDS011;2175;51.018;6.994;2023-09-07T06:33:31;11.80;;;9.20;;
4323;SDS011;2175;51.018;6.994;2023-09-07T06:35:57;12.67;;;8.60;;
4323;SDS011;2175;51.018;6.994;2023-09-07T06:38:26;13.80;;;8.93;;
4323;SDS011;2175;51.018;6.994;2023-09-07T06:40:52;12.60;;;8.00;;
4323;SDS011;2175;51.018;6.994;2023-09-07T06:43:18;17.87;;;9.60;;
4323;SDS011;2175;51.018;6.994;2023-09-07T06:45:44;11.90;;;8.67;;
4323;SDS011;2175;51.018;6.994;2023-09-07T06:48:10;14.50;;;9.10;;
4323;SDS011;2175;51.018;6.994;2023-09-07T06:50:37;10.60;;;8.83;;
4323;SDS011;2175;51.018;6.994;2023-09-07T06:53:03;9.60;;;8.37;;
4323;SDS011;2175;51.018;6.994;2023-09-07T06:55:29;10.57;;;8.67;;
4323;SDS011;2175;51.018;6.994;2023-09-07T06:57:55;10.37;;;7.90;;
4323;SDS011;2175;51.018;6.994;2023-09-07T07:00:22;9.73;;;8.37;;
4323;SDS011;2175;51.018;6.994;2023-09-07T07:02:48;12.67;;;8.27;;
4323;SDS011;2175;51.018;6.994;2023-09-07T07:05:14;9.87;;;8.13;;
4323;SDS011;2175;51.018;6.994;2023-09-07T07:07:40;13.03;;;8.37;;
4323;SDS011;2175;51.018;6.994;2023-09-07T07:10:06;10.50;;;7.87;;
4323;SDS011;2175;51.018;6.994;2023-09-07T07:12:33;11.03;;;8.47;;
4323;SDS011;2175;51.018;6.994;2023-09-07T07:14:59;14.33;;;8.23;;
4323;SDS011;2175;51.018;6.994;2023-09-07T07:17:26;11.43;;;8.23;;
4323;SDS011;2175;51.018;6.994;2023-09-07T07:19:52;11.33;;;8.00;;
4323;SDS011;2175;51.018;6.994;2023-09-07T07:22:18;15.00;;;7.50;;
4323;SDS011;2175;51.018;6.994;2023-09-07T07:24:44;12.57;;;8.13;;
4323;SDS011;2175;51.018;6.994;2023-09-07T07:27:10;10.30;;;8.37;;
4323;SDS011;2175;51.018;6.994;2023-09-07T07:29:36;10.40;;;7.83;;
4323;SDS011;2175;51.018;6.994;2023-09-07T07:32:03;12.13;;;8.13;;
4323;SDS011;2175;51.018;6.994;2023-09-07T07:34:29;10.77;;;7.50;;
4323;SDS011;2175;51.018;6.994;2023-09-07T07:36:55;13.33;;;8.57;;
4323;SDS011;2175;51.018;6.994;2023-09-07T07:39:21;9.07;;;7.43;;
4323;SDS011;2175;51.018;6.994;2023-09-07T07:41:47;10.73;;;7.77;;
4323;SDS011;2175;51.018;6.994;2023-09-07T07:44:13;10.70;;;7.60;;
4323;SDS011;2175;51.018;6.994;2023-09-07T07:46:39;10.47;;;7.53;;
4323;SDS011;2175;51.018;6.994;2023-09-07T07:49:05;10.50;;;7.00;;
4323;SDS011;2175;51.018;6.994;2023-09-07T07:51:31;12.13;;;7.40;;
4323;SDS011;2175;51.018;6.994;2023-09-07T07:53:57;10.53;;;7.13;;
4323;SDS011;2175;51.018;6.994;2023-09-07T07:56:23;10.20;;;6.80;;
4323;SDS011;2175;51.018;6.994;2023-09-07T07:58:50;14.30;;;7.13;;
4323;SDS011;2175;51.018;6.994;2023-09-07T08:01:16;13.63;;;7.30;;
4323;SDS011;2175;51.018;6.994;2023-09-07T08:03:42;10.47;;;6.83;;
4323;SDS011;2175;51.018;6.994;2023-09-07T08:06:09;8.83;;;6.30;;
4323;SDS011;2175;51.018;6.994;2023-09-07T08:08:35;9.63;;;5.90;;
4323;SDS011;2175;51.018;6.994;2023-09-07T08:11:01;8.60;;;5.93;;
4323;SDS011;2175;51.018;6.994;2023-09-07T08:13:31;9.93;;;5.83;;
4323;SDS011;2175;51.018;6.994;2023-09-07T08:15:57;9.67;;;5.97;;
4323;SDS011;2175;51.018;6.994;2023-09-07T08:18:23;10.33;;;5.87;;
4323;SDS011;2175;51.018;6.994;2023-09-07T08:20:49;7.63;;;5.60;;
4323;SDS011;2175;51.018;6.994;2023-09-07T08:23:15;7.20;;;5.80;;
4323;SDS011;2175;51.018;6.994;2023-09-07T08:25:41;8.60;;;5.40;;
4323;SDS011;2175;51.018;6.994;2023-09-07T08:28:11;10.97;;;5.33;;
4323;SDS011;2175;51.018;6.994;2023-09-07T08:30:37;7.67;;;5.43;;
4323;SDS011;2175;51.018;6.994;2023-09-07T08:33:04;6.00;;;4.87;;
4323;SDS011;2175;51.018;6.994;2023-09-07T08:35:31;13.97;;;5.10;;
4323;SDS011;2175;51.018;6.994;2023-09-07T08:38:00;5.43;;;4.53;;
4323;SDS011;2175;51.018;6.994;2023-09-07T08:40:29;7.37;;;4.50;;
4323;SDS011;2175;51.018;6.994;2023-09-07T08:42:58;5.60;;;4.70;;
4323;SDS011;2175;51.018;6.994;2023-09-07T08:45:25;5.20;;;4.50;;
4323;SDS011;2175;51.018;6.994;2023-09-07T08:47:51;11.70;;;5.00;;
4323;SDS011;2175;51.018;6.994;2023-09-07T08:50:18;8.47;;;4.10;;
4323;SDS011;2175;51.018;6.994;2023-09-07T08:52:45;5.43;;;4.53;;
4323;SDS011;2175;51.018;6.994;2023-09-07T08:55:12;5.10;;;4.60;;
4323;SDS011;2175;51.018;6.994;2023-09-07T08:57:38;4.77;;;4.27;;
4323;SDS011;2175;51.018;6.994;2023-09-07T09:00:05;4.53;;;4.00;;
4323;SDS011;2175;51.018;6.994;2023-09-07T09:02:38;5.97;;;3.73;;
4323;SDS011;2175;51.018;6.994;2023-09-07T09:05:04;4.70;;;3.97;;
4323;SDS011;2175;51.018;6.994;2023-09-07T09:07:31;7.00;;;4.70;;
4323;SDS011;2175;51.018;6.994;2023-09-07T09:10:06;9.23;;;4.47;;
4323;SDS011;2175;51.018;6.994;2023-09-07T09:12:33;7.30;;;4.50;;
4323;SDS011;2175;51.018;6.994;2023-09-07T09:14:59;4.33;;;3.93;;
4323;SDS011;2175;51.018;6.994;2023-09-07T09:17:28;7.73;;;4.30;;
4323;SDS011;2175;51.018;6.994;2023-09-07T09:19:54;5.03;;;3.97;;
4323;SDS011;2175;51.018;6.994;2023-09-07T09:22:20;5.60;;;4.30;;
4323;SDS011;2175;51.018;6.994;2023-09-07T09:24:50;5.83;;;3.93;;
4323;SDS011;2175;51.018;6.994;2023-09-07T09:27:16;5.37;;;4.60;;
4323;SDS011;2175;51.018;6.994;2023-09-07T09:29:42;4.77;;;4.37;;
4323;SDS011;2175;51.018;6.994;2023-09-07T09:32:09;4.83;;;4.23;;
4323;SDS011;2175;51.018;6.994;2023-09-07T09:34:35;5.87;;;4.40;;
4323;SDS011;2175;51.018;6.994;2023-09-07T09:37:02;4.50;;;4.10;;
4323;SDS011;2175;51.018;6.994;2023-09-07T09:39:31;4.40;;;4.00;;
4323;SDS011;2175;51.018;6.994;2023-09-07T09:41:57;5.73;;;4.37;;
4323;SDS011;2175;51.018;6.994;2023-09-07T09:44:24;4.60;;;3.87;;
4323;SDS011;2175;51.018;6.994;2023-09-07T09:46:51;5.80;;;4.60;;
4323;SDS011;2175;51.018;6.994;2023-09-07T09:49:17;5.13;;;4.10;;
4323;SDS011;2175;51.018;6.994;2023-09-07T09:51:45;5.87;;;3.90;;
4323;SDS011;2175;51.018;6.994;2023-09-07T09:54:11;4.17;;;3.77;;
4323;SDS011;2175;51.018;6.994;2023-09-07T09:56:38;5.63;;;4.00;;
4323;SDS011;2175;51.018;6.994;2023-09-07T09:59:04;4.73;;;4.33;;
4323;SDS011;2175;51.018;6.994;2023-09-07T10:01:36;6.77;;;4.40;;
4323;SDS011;2175;51.018;6.994;2023-09-07T10:04:02;5.60;;;4.40;;
4323;SDS011;2175;51.018;6.994;2023-09-07T10:06:29;5.40;;;4.10;;
4323;SDS011;2175;51.018;6.994;2023-09-07T10:11:31;4.80;;;4.30;;
4323;SDS011;2175;51.018;6.994;2023-09-07T10:13:58;6.37;;;4.43;;
4323;SDS011;2175;51.018;6.994;2023-09-07T10:16:24;8.13;;;4.87;;
4323;SDS011;2175;51.018;6.994;2023-09-07T10:18:52;6.20;;;4.70;;
4323;SDS011;2175;51.018;6.994;2023-09-07T10:21:18;9.23;;;4.37;;
4323;SDS011;2175;51.018;6.994;2023-09-07T10:23:44;6.90;;;4.47;;
4323;SDS011;2175;51.018;6.994;2023-09-07T10:26:11;11.50;;;4.80;;
4323;SDS011;2175;51.018;6.994;2023-09-07T10:28:38;4.83;;;4.20;;
4323;SDS011;2175;51.018;6.994;2023-09-07T10:31:12;7.70;;;3.83;;
4323;SDS011;2175;51.018;6.994;2023-09-07T10:33:39;4.80;;;4.13;;
4323;SDS011;2175;51.018;6.994;2023-09-07T10:36:05;4.50;;;3.80;;
4323;SDS011;2175;51.018;6.994;2023-09-07T10:38:32;4.57;;;4.17;;
4323;SDS011;2175;51.018;6.994;2023-09-07T10:40:59;5.53;;;3.70;;
4323;SDS011;2175;51.018;6.994;2023-09-07T10:43:26;5.20;;;3.80;;
4323;SDS011;2175;51.018;6.994;2023-09-07T10:45:52;4.20;;;3.63;;
4323;SDS011;2175;51.018;6.994;2023-09-07T10:48:19;5.50;;;3.80;;
4323;SDS011;2175;51.018;6.994;2023-09-07T10:50:45;5.07;;;3.80;;
4323;SDS011;2175;51.018;6.994;2023-09-07T10:53:12;5.80;;;4.00;;
4323;SDS011;2175;51.018;6.994;2023-09-07T10:55:39;6.23;;;4.23;;
4323;SDS011;2175;51.018;6.994;2023-09-07T10:58:06;4.37;;;3.83;;
4323;SDS011;2175;51.018;6.994;2023-09-07T11:00:33;4.93;;;3.90;;
4323;SDS011;2175;51.018;6.994;2023-09-07T11:03:06;4.00;;;3.60;;
4323;SDS011;2175;51.018;6.994;2023-09-07T11:05:32;6.93;;;4.20;;
4323;SDS011;2175;51.018;6.994;2023-09-07T11:08:01;12.30;;;4.30;;
4323;SDS011;2175;51.018;6.994;2023-09-07T11:10:27;4.67;;;4.10;;
4323;SDS011;2175;51.018;6.994;2023-09-07T11:12:53;4.60;;;4.20;;
4323;SDS011;2175;51.018;6.994;2023-09-07T11:15:19;5.90;;;4.30;;
4323;SDS011;2175;51.018;6.994;2023-09-07T11:17:45;4.67;;;4.27;;
4323;SDS011;2175;51.018;6.994;2023-09-07T11:20:11;5.87;;;4.30;;
4323;SDS011;2175;51.018;6.994;2023-09-07T11:22:37;4.53;;;4.13;;
4323;SDS011;2175;51.018;6.994;2023-09-07T11:25:04;8.20;;;4.10;;
4323;SDS011;2175;51.018;6.994;2023-09-07T11:27:31;4.63;;;4.23;;
4323;SDS011;2175;51.018;6.994;2023-09-07T11:29:57;7.07;;;4.40;;
4323;SDS011;2175;51.018;6.994;2023-09-07T11:32:32;4.70;;;4.27;;
4323;SDS011;2175;51.018;6.994;2023-09-07T11:34:58;5.33;;;4.20;;
4323;SDS011;2175;51.018;6.994;2023-09-07T11:37:25;4.20;;;3.80;;
4323;SDS011;2175;51.018;6.994;2023-09-07T11:39:51;4.37;;;3.97;;
4323;SDS011;2175;51.018;6.994;2023-09-07T11:42:17;5.73;;;4.57;;
4323;SDS011;2175;51.018;6.994;2023-09-07T11:44:43;6.27;;;4.37;;
4323;SDS011;2175;51.018;6.994;2023-09-07T11:47:09;5.83;;;4.63;;
4323;SDS011;2175;51.018;6.994;2023-09-07T11:49:35;9.47;;;4.13;;
4323;SDS011;2175;51.018;6.994;2023-09-07T11:52:01;9.13;;;3.90;;
4323;SDS011;2175;51.018;6.994;2023-09-07T11:54:27;7.20;;;4.50;;
4323;SDS011;2175;51.018;6.994;2023-09-07T11:56:53;5.20;;;4.70;;
4323;SDS011;2175;51.018;6.994;2023-09-07T11:59:19;8.33;;;4.40;;
4323;SDS011;2175;51.018;6.994;2023-09-07T12:01:45;6.57;;;4.80;;
4323;SDS011;2175;51.018;6.994;2023-09-07T12:04:11;5.13;;;4.13;;
4323;SDS011;2175;51.018;6.994;2023-09-07T12:06:37;6.20;;;4.40;;
4323;SDS011;2175;51.018;6.994;2023-09-07T12:09:09;6.27;;;4.87;;
4323;SDS011;2175;51.018;6.994;2023-09-07T12:11:36;5.93;;;4.80;;
4323;SDS011;2175;51.018;6.994;2023-09-07T12:14:02;4.63;;;4.13;;
4323;SDS011;2175;51.018;6.994;2023-09-07T12:16:28;6.83;;;4.60;;
4323;SDS011;2175;51.018;6.994;2023-09-07T12:18:55;4.97;;;4.47;;
4323;SDS011;2175;51.018;6.994;2023-09-07T12:21:21;5.10;;;4.50;;
4323;SDS011;2175;51.018;6.994;2023-09-07T12:23:47;6.73;;;4.67;;
4323;SDS011;2175;51.018;6.994;2023-09-07T12:26:13;5.40;;;4.20;;
4323;SDS011;2175;51.018;6.994;2023-09-07T12:28:39;5.73;;;4.97;;
4323;SDS011;2175;51.018;6.994;2023-09-07T12:31:06;7.20;;;4.80;;
4323;SDS011;2175;51.018;6.994;2023-09-07T12:33:32;7.23;;;5.37;;
4323;SDS011;2175;51.018;6.994;2023-09-07T12:35:58;4.40;;;4.00;;
4323;SDS011;2175;51.018;6.994;2023-09-07T12:38:25;5.43;;;4.40;;
4323;SDS011;2175;51.018;6.994;2023-09-07T12:40:53;9.93;;;4.87;;
4323;SDS011;2175;51.018;6.994;2023-09-07T12:43:19;5.60;;;5.00;;
4323;SDS011;2175;51.018;6.994;2023-09-07T12:45:46;6.93;;;4.40;;
4323;SDS011;2175;51.018;6.994;2023-09-07T12:48:12;6.07;;;4.07;;
4323;SDS011;2175;51.018;6.994;2023-09-07T12:50:38;5.80;;;4.93;;
4323;SDS011;2175;51.018;6.994;2023-09-07T12:53:05;6.60;;;5.20;;
4323;SDS011;2175;51.018;6.994;2023-09-07T12:55:31;5.50;;;4.40;;
4323;SDS011;2175;51.018;6.994;2023-09-07T12:57:58;6.60;;;4.70;;
4323;SDS011;2175;51.018;6.994;2023-09-07T13:00:25;4.53;;;4.03;;
4323;SDS011;2175;51.018;6.994;2023-09-07T13:02:51;8.47;;;4.53;;
4323;SDS011;2175;51.018;6.994;2023-09-07T13:05:17;5.90;;;4.30;;
4323;SDS011;2175;51.018;6.994;2023-09-07T13:07:43;7.07;;;4.50;;
4323;SDS011;2175;51.018;6.994;2023-09-07T13:10:10;6.00;;;4.63;;
4323;SDS011;2175;51.018;6.994;2023-09-07T13:12:36;4.30;;;3.90;;
4323;SDS011;2175;51.018;6.994;2023-09-07T13:15:03;7.30;;;5.10;;
4323;SDS011;2175;51.018;6.994;2023-09-07T13:17:29;6.90;;;4.50;;
4323;SDS011;2175;51.018;6.994;2023-09-07T13:19:55;6.00;;;4.70;;
4323;SDS011;2175;51.018;6.994;2023-09-07T13:22:21;5.57;;;4.70;;
4323;SDS011;2175;51.018;6.994;2023-09-07T13:24:48;6.67;;;4.60;;
4323;SDS011;2175;51.018;6.994;2023-09-07T13:27:15;6.13;;;4.30;;
4323;SDS011;2175;51.018;6.994;2023-09-07T13:29:40;7.23;;;4.00;;
4323;SDS011;2175;51.018;6.994;2023-09-07T13:32:06;6.20;;;4.13;;
4323;SDS011;2175;51.018;6.994;2023-09-07T13:34:32;6.63;;;4.33;;
4323;SDS011;2175;51.018;6.994;2023-09-07T13:36:58;5.33;;;4.60;;
4323;SDS011;2175;51.018;6.994;2023-09-07T13:39:24;6.67;;;4.23;;
4323;SDS011;2175;51.018;6.994;2023-09-07T13:41:50;5.57;;;4.60;;
4323;SDS011;2175;51.018;6.994;2023-09-07T13:44:17;7.20;;;4.50;;
4323;SDS011;2175;51.018;6.994;2023-09-07T13:46:43;8.10;;;4.73;;
4323;SDS011;2175;51.018;6.994;2023-09-07T13:49:10;5.13;;;4.63;;
4323;SDS011;2175;51.018;6.994;2023-09-07T13:51:36;6.93;;;4.80;;
4323;SDS011;2175;51.018;6.994;2023-09-07T13:54:05;5.93;;;4.60;;
4323;SDS011;2175;51.018;6.994;2023-09-07T13:56:32;4.63;;;4.23;;
4323;SDS011;2175;51.018;6.994;2023-09-07T13:58:58;5.00;;;4.37;;
4323;SDS011;2175;51.018;6.994;2023-09-07T14:01:24;6.83;;;5.27;;
4323;SDS011;2175;51.018;6.994;2023-09-07T14:03:50;9.90;;;4.10;;
4323;SDS011;2175;51.018;6.994;2023-09-07T14:06:18;6.40;;;4.70;;
4323;SDS011;2175;51.018;6.994;2023-09-07T14:08:47;4.27;;;3.87;;
4323;SDS011;2175;51.018;6.994;2023-09-07T14:11:13;6.07;;;4.60;;
4323;SDS011;2175;51.018;6.994;2023-09-07T14:13:39;7.20;;;4.40;;
4323;SDS011;2175;51.018;6.994;2023-09-07T14:16:05;10.60;;;4.30;;
4323;SDS011;2175;51.018;6.994;2023-09-07T14:18:32;5.23;;;4.47;;
4323;SDS011;2175;51.018;6.994;2023-09-07T14:20:58;5.60;;;4.70;;
4323;SDS011;2175;51.018;6.994;2023-09-07T14:23:26;7.10;;;4.60;;
4323;SDS011;2175;51.018;6.994;2023-09-07T14:25:53;7.17;;;4.40;;
4323;SDS011;2175;51.018;6.994;2023-09-07T14:28:19;6.23;;;4.47;;
4323;SDS011;2175;51.018;6.994;2023-09-07T14:30:46;4.73;;;4.23;;
4323;SDS011;2175;51.018;6.994;2023-09-07T14:33:12;10.50;;;4.60;;
4323;SDS011;2175;51.018;6.994;2023-09-07T14:35:38;4.73;;;4.20;;
4323;SDS011;2175;51.018;6.994;2023-09-07T14:38:04;4.63;;;4.23;;
4323;SDS011;2175;51.018;6.994;2023-09-07T14:40:30;7.37;;;4.60;;
4323;SDS011;2175;51.018;6.994;2023-09-07T14:42:56;5.23;;;4.43;;
4323;SDS011;2175;51.018;6.994;2023-09-07T14:45:23;5.50;;;4.50;;
4323;SDS011;2175;51.018;6.994;2023-09-07T14:47:50;4.87;;;4.27;;
4323;SDS011;2175;51.018;6.994;2023-09-07T14:50:16;6.90;;;4.47;;
4323;SDS011;2175;51.018;6.994;2023-09-07T14:52:46;4.90;;;4.40;;
4323;SDS011;2175;51.018;6.994;2023-09-07T14:55:12;4.83;;;4.20;;
4323;SDS011;2175;51.018;6.994;2023-09-07T14:57:41;5.20;;;4.10;;
4323;SDS011;2175;51.018;6.994;2023-09-07T15:00:08;4.23;;;3.80;;
4323;SDS011;2175;51.018;6.994;2023-09-07T15:02:34;5.50;;;4.13;;
4323;SDS011;2175;51.018;6.994;2023-09-07T15:05:00;5.00;;;4.50;;
4323;SDS011;2175;51.018;6.994;2023-09-07T15:07:27;4.40;;;4.00;;
4323;SDS011;2175;51.018;6.994;2023-09-07T15:09:53;7.50;;;4.70;;